Carnival Liberty — HPYE — position and weather

sailwx.info

Track history (hours):
 
Tides and Currents Weather Stations Pressure Air Temp Water Temp Dewpoint Dewpoint Depression Visibility Wind Speed Wind Dir Waves Ship Positions

Carnival Liberty

Last reported at 2015-Sep-05 09:32 UTC. Time now 2015-Sep-05 10:12 UTC.
Position N 18°00' W 063°11'.

Type: Ship. MMSI: 371083000.

Date/timePositionNaut miles runAvg speedWind from/ knotsBaromVisibWave heightAir tempDewpointWater temp
2015-Sep-05 09:32N 18°00' W 063°11'9 9.4
2015-Sep-05 08:32N 18°03' W 063°20'9 9.6
2015-Sep-05 07:33N 18°07' W 063°30'9 9.4
2015-Sep-05 06:33N 18°09' W 063°39'9 9.0
2015-Sep-05 05:33N 18°00' W 063°42'10 9.4
2015-Sep-05 04:32N 17°59' W 063°32'9 9.5
2015-Sep-05 03:33N 17°57' W 063°22'1010.0
2015-Sep-05 02:33N 17°50' W 063°15'10 9.9
2015-Sep-05 01:33N 17°43' W 063°08'10 9.9
2015-Sep-05 00:30N 17°32' W 063°06'57 3.6
2015-Sep-04 08:23N 16°44' W 062°33'11917.0
2015-Sep-04 01:21N 14°58' W 061°37'1417.2
2015-Sep-04 00:33N 14°46' W 061°31'1717.4
2015-Sep-03 23:33N 14°30' W 061°23'1817.7
2015-Sep-03 22:33N 14°15' W 061°14'2014.2
2015-Sep-03 21:11N 14°01' W 060°60'0 0.0
2015-Sep-03 20:32N 14°01' W 060°60'0 0.0
2015-Sep-03 19:31N 14°01' W 060°60'0 0.0
2015-Sep-03 18:31N 14°01' W 060°60'0 0.0
2015-Sep-03 17:33N 14°01' W 060°60'0 0.0
2015-Sep-03 16:33N 14°01' W 060°60'0 0.0
2015-Sep-03 15:32N 14°01' W 060°60'0 0.0
2015-Sep-03 14:32N 14°01' W 060°60'0 0.0
2015-Sep-03 13:31N 14°01' W 060°60'0 0.0
2015-Sep-03 12:28N 14°01' W 060°60'0 0.1
2015-Sep-03 11:33N 14°01' W 060°60'6 5.6
2015-Sep-03 10:33N 14°01' W 061°06'10 9.8
2015-Sep-03 09:33N 13°57' W 061°15'36 1.1
2015-Sep-02 02:03N 14°08' W 060°39'5 8.9
2015-Sep-02 01:29N 14°11' W 060°43'8 8.8
2015-Sep-02 00:33N 14°13' W 060°51'9 8.8
2015-Sep-01 23:33N 14°14' W 061°00'8 8.3
2015-Sep-01 22:33N 14°15' W 061°09'8 8.4
2015-Sep-01 21:33N 14°17' W 061°17'9 9.4
2015-Sep-01 20:33N 14°25' W 061°23'9 8.8
2015-Sep-01 19:33N 14°32' W 061°28'9 8.8
2015-Sep-01 18:33N 14°39' W 061°34'10 9.5
2015-Sep-01 17:33N 14°46' W 061°40'10 9.8
2015-Sep-01 16:31N 14°54' W 061°47'15313.7
2015-Sep-01 05:18N 16°51' W 063°29'9916.1
2015-Aug-31 23:08N 18°04' W 064°41'915.6
2015-Aug-31 22:33N 18°08' W 064°49'12 1.0
2015-Aug-31 10:26N 18°18' W 064°55'0 0.0
2015-Aug-29 10:23N 18°18' W 064°55'7 8.3
2015-Aug-29 09:33N 18°13' W 064°51'29 9.3
2015-Aug-29 06:23N 18°07' W 064°21'7 7.8
2015-Aug-29 05:33N 18°03' W 064°15'36 9.0
2015-Aug-29 01:33N 18°03' W 063°38'9 9.4
2015-Aug-29 00:32N 18°02' W 063°28'10 9.9
2015-Aug-28 23:33N 18°01' W 063°18'1010.0
2015-Aug-28 22:33N 18°01' W 063°07'4 0.4
2015-Aug-28 12:10N 18°01' W 063°03'1 1.4
2015-Aug-28 11:33N 18°00' W 063°04'6 6.3
2015-Aug-28 10:33N 17°59' W 063°10'1616.5
2015-Aug-28 09:33N 17°43' W 063°08'19419.4
2015-Aug-27 23:33N 14°50' W 061°36'2019.6
2015-Aug-27 22:33N 14°33' W 061°26'2019.9
2015-Aug-27 21:33N 14°16' W 061°15'1917.4
2015-Aug-27 20:27N 14°02' W 061°01'2 1.6
2015-Aug-27 19:30N 14°01' W 060°60'0 0.0
2015-Aug-27 18:30N 14°01' W 060°60'0 0.0
2015-Aug-27 17:32N 14°01' W 060°60'0 0.0
2015-Aug-27 16:32N 14°01' W 060°60'0 0.0
2015-Aug-27 15:22N 14°01' W 060°60'0 0.0
2015-Aug-27 14:31N 14°01' W 060°60'0 0.0
2015-Aug-27 13:33N 14°01' W 060°60'0 0.0
2015-Aug-27 12:24N 14°01' W 060°60'0 0.0
2015-Aug-27 11:32N 14°01' W 060°60'0 0.0
2015-Aug-27 10:33N 14°01' W 060°60'7 6.9
2015-Aug-27 09:33N 14°01' W 061°07'  
Track history (hours):
 
Tides and Currents Weather Stations Pressure Air Temp Water Temp Dewpoint Dewpoint Depression Visibility Wind Speed Wind Dir Waves Ship Positions

Carnival Liberty

Last reported at 2015-Sep-05 09:32 UTC. Time now 2015-Sep-05 10:12 UTC.
Position N 18°00' W 063°11'.

Type: Ship. MMSI: 371083000.

Date/timePositionNaut miles runAvg speedWind from/ knotsBaromVisibWave heightAir tempDewpointWater temp
2015-Sep-05 09:32N 18°00' W 063°11'9 9.4
2015-Sep-05 08:32N 18°03' W 063°20'9 9.6
2015-Sep-05 07:33N 18°07' W 063°30'9 9.4
2015-Sep-05 06:33N 18°09' W 063°39'9 9.0
2015-Sep-05 05:33N 18°00' W 063°42'10 9.4
2015-Sep-05 04:32N 17°59' W 063°32'9 9.5
2015-Sep-05 03:33N 17°57' W 063°22'1010.0
2015-Sep-05 02:33N 17°50' W 063°15'10 9.9
2015-Sep-05 01:33N 17°43' W 063°08'10 9.9
2015-Sep-05 00:30N 17°32' W 063°06'57 3.6
2015-Sep-04 08:23N 16°44' W 062°33'11917.0
2015-Sep-04 01:21N 14°58' W 061°37'1417.2
2015-Sep-04 00:33N 14°46' W 061°31'1717.4
2015-Sep-03 23:33N 14°30' W 061°23'1817.7
2015-Sep-03 22:33N 14°15' W 061°14'2014.2
2015-Sep-03 21:11N 14°01' W 060°60'0 0.0
2015-Sep-03 20:32N 14°01' W 060°60'0 0.0
2015-Sep-03 19:31N 14°01' W 060°60'0 0.0
2015-Sep-03 18:31N 14°01' W 060°60'0 0.0
2015-Sep-03 17:33N 14°01' W 060°60'0 0.0
2015-Sep-03 16:33N 14°01' W 060°60'0 0.0
2015-Sep-03 15:32N 14°01' W 060°60'0 0.0
2015-Sep-03 14:32N 14°01' W 060°60'0 0.0
2015-Sep-03 13:31N 14°01' W 060°60'0 0.0
2015-Sep-03 12:28N 14°01' W 060°60'0 0.1
2015-Sep-03 11:33N 14°01' W 060°60'6 5.6
2015-Sep-03 10:33N 14°01' W 061°06'10 9.8
2015-Sep-03 09:33N 13°57' W 061°15'36 1.1
2015-Sep-02 02:03N 14°08' W 060°39'5 8.9
2015-Sep-02 01:29N 14°11' W 060°43'8 8.8
2015-Sep-02 00:33N 14°13' W 060°51'9 8.8
2015-Sep-01 23:33N 14°14' W 061°00'8 8.3
2015-Sep-01 22:33N 14°15' W 061°09'8 8.4
2015-Sep-01 21:33N 14°17' W 061°17'9 9.4
2015-Sep-01 20:33N 14°25' W 061°23'9 8.8
2015-Sep-01 19:33N 14°32' W 061°28'9 8.8
2015-Sep-01 18:33N 14°39' W 061°34'10 9.5
2015-Sep-01 17:33N 14°46' W 061°40'10 9.8
2015-Sep-01 16:31N 14°54' W 061°47'15313.7
2015-Sep-01 05:18N 16°51' W 063°29'9916.1
2015-Aug-31 23:08N 18°04' W 064°41'915.6
2015-Aug-31 22:33N 18°08' W 064°49'12 1.0
2015-Aug-31 10:26N 18°18' W 064°55'0 0.0
2015-Aug-29 10:23N 18°18' W 064°55'7 8.3
2015-Aug-29 09:33N 18°13' W 064°51'29 9.3
2015-Aug-29 06:23N 18°07' W 064°21'7 7.8
2015-Aug-29 05:33N 18°03' W 064°15'36 9.0
2015-Aug-29 01:33N 18°03' W 063°38'9 9.4
2015-Aug-29 00:32N 18°02' W 063°28'10 9.9
2015-Aug-28 23:33N 18°01' W 063°18'1010.0
2015-Aug-28 22:33N 18°01' W 063°07'4 0.4
2015-Aug-28 12:10N 18°01' W 063°03'1 1.4
2015-Aug-28 11:33N 18°00' W 063°04'6 6.3
2015-Aug-28 10:33N 17°59' W 063°10'1616.5
2015-Aug-28 09:33N 17°43' W 063°08'19419.4
2015-Aug-27 23:33N 14°50' W 061°36'2019.6
2015-Aug-27 22:33N 14°33' W 061°26'2019.9
2015-Aug-27 21:33N 14°16' W 061°15'1917.4
2015-Aug-27 20:27N 14°02' W 061°01'2 1.6
2015-Aug-27 19:30N 14°01' W 060°60'0 0.0
2015-Aug-27 18:30N 14°01' W 060°60'0 0.0
2015-Aug-27 17:32N 14°01' W 060°60'0 0.0
2015-Aug-27 16:32N 14°01' W 060°60'0 0.0
2015-Aug-27 15:22N 14°01' W 060°60'0 0.0
2015-Aug-27 14:31N 14°01' W 060°60'0 0.0
2015-Aug-27 13:33N 14°01' W 060°60'0 0.0
2015-Aug-27 12:24N 14°01' W 060°60'0 0.0
2015-Aug-27 11:32N 14°01' W 060°60'0 0.0
2015-Aug-27 10:33N 14°01' W 060°60'7 6.9
2015-Aug-27 09:33N 14°01' W 061°07'  

Dump ship's entire track history